Time;durP1;ratioP1;P1;durP2;ratioP2;P2;SDS_P1;SDS_P2;PMS_P1;PMS_P2;Temp;Humidity;BMP_temperature;BMP_pressure;BME280_temperature;BME280_humidity;BME280_pressure;Samples;Min_cycle;Max_cycle;Signal;HPM_P1;HPM_P2
2023/04/09 00:00:15;;;;;;;60.22;29.50;;;6.20;99.90;;;;;;5050530;28;20021;-45
2023/04/09 00:02:41;;;;;;;63.58;30.20;;;6.30;99.90;;;;;;5050677;28;20290;-45
2023/04/09 00:05:07;;;;;;;70.95;33.33;;;6.30;99.90;;;;;;5050643;28;20032;-45
2023/04/09 00:07:32;;;;;;;63.30;31.63;;;6.20;99.90;;;;;;5050740;28;20106;-49
2023/04/09 00:09:58;;;;;;;61.65;30.65;;;6.30;99.90;;;;;;5049980;28;20029;-46
2023/04/09 00:12:23;;;;;;;72.57;33.10;;;6.20;99.90;;;;;;5049829;28;20017;-47
2023/04/09 00:14:49;;;;;;;60.10;32.20;;;6.20;99.90;;;;;;5050436;28;20021;-46
2023/04/09 00:17:15;;;;;;;65.38;32.85;;;6.20;99.90;;;;;;5050135;28;20021;-46
2023/04/09 00:19:40;;;;;;;59.45;30.45;;;6.20;99.90;;;;;;5049983;28;20021;-46
2023/04/09 00:22:06;;;;;;;62.97;33.35;;;6.20;99.90;;;;;;5050603;28;20470;-46
2023/04/09 00:24:31;;;;;;;62.47;31.42;;;6.20;99.90;;;;;;5050102;28;20017;-46
2023/04/09 00:26:57;;;;;;;58.13;31.02;;;6.20;99.90;;;;;;5049679;28;20305;-46
2023/04/09 00:29:22;;;;;;;59.30;30.50;;;6.20;99.90;;;;;;5049730;28;20021;-46
2023/04/09 00:31:48;;;;;;;56.25;29.15;;;6.20;99.90;;;;;;5050056;28;20062;-46
2023/04/09 00:34:13;;;;;;;54.65;29.42;;;6.20;99.90;;;;;;5048504;28;20403;-46
2023/04/09 00:36:39;;;;;;;53.38;29.95;;;6.20;99.90;;;;;;5049503;28;20036;-46
2023/04/09 00:39:04;;;;;;;61.92;32.97;;;6.10;99.90;;;;;;5049767;28;20044;-46
2023/04/09 00:41:30;;;;;;;56.33;29.55;;;6.10;99.90;;;;;;5049720;28;20020;-46
2023/04/09 00:43:56;;;;;;;59.65;30.60;;;6.10;99.90;;;;;;5049601;28;20036;-47
2023/04/09 00:46:22;;;;;;;56.47;30.33;;;6.10;99.90;;;;;;5048995;28;20025;-47
2023/04/09 00:48:47;;;;;;;56.38;29.45;;;6.10;99.90;;;;;;5049415;28;20029;-47
2023/04/09 00:51:13;;;;;;;56.90;30.55;;;6.00;99.90;;;;;;5048076;28;20123;-46
2023/04/09 00:53:38;;;;;;;60.03;32.30;;;6.00;99.90;;;;;;5049188;28;20378;-46
2023/04/09 00:56:05;;;;;;;54.30;28.92;;;6.00;99.90;;;;;;5049358;28;20425;-46
2023/04/09 00:58:31;;;;;;;55.10;28.88;;;6.00;99.90;;;;;;5048799;28;20025;-47
2023/04/09 01:00:56;;;;;;;61.95;30.75;;;5.90;99.90;;;;;;5049940;28;20387;-46
2023/04/09 01:03:22;;;;;;;68.25;33.70;;;5.90;99.90;;;;;;5049243;28;20100;-48
2023/04/09 01:06:10;;;;;;;76.57;35.30;;;5.90;99.90;;;;;;5048108;28;20402;-47
2023/04/09 01:08:57;;;;;;;69.93;33.10;;;5.80;99.90;;;;;;5048831;28;20460;-46
2023/04/09 01:11:45;;;;;;;72.65;35.05;;;5.80;99.90;;;;;;5049149;28;20441;-46
2023/04/09 01:14:26;;;;;;;77.35;34.75;;;5.70;99.90;;;;;;5048950;28;20120;-46
2023/04/09 01:17:20;;;;;;;66.45;33.42;;;5.70;99.90;;;;;;5049281;28;20099;-47
2023/04/09 01:20:01;;;;;;;61.72;32.28;;;5.70;99.90;;;;;;5049132;28;20021;-46
2023/04/09 01:22:44;;;;;;;62.60;31.33;;;5.60;99.90;;;;;;5049046;28;20520;-46
2023/04/09 01:25:55;;;;;;;70.47;32.60;;;5.60;99.90;;;;;;5049213;28;20037;-46
2023/04/09 01:28:32;;;;;;;71.72;33.80;;;5.50;99.90;;;;;;5048501;28;20406;-46
2023/04/09 01:31:04;;;;;;;71.75;34.72;;;5.50;99.90;;;;;;5049105;28;20036;-48
2023/04/09 01:33:31;;;;;;;62.58;32.20;;;5.50;99.90;;;;;;5049105;28;20047;-46
2023/04/09 01:35:57;;;;;;;69.93;34.83;;;5.50;99.90;;;;;;5049235;28;20100;-50
2023/04/09 01:38:24;;;;;;;57.67;30.17;;;5.50;99.90;;;;;;5048339;28;20025;-46
2023/04/09 01:40:50;;;;;;;80.80;37.67;;;5.40;99.90;;;;;;5047296;28;20028;-46
2023/04/09 01:43:17;;;;;;;51.60;29.42;;;5.50;99.90;;;;;;5047975;28;20085;-47
2023/04/09 01:45:44;;;;;;;52.78;27.58;;;5.40;99.90;;;;;;5048594;28;20017;-46
2023/04/09 01:48:12;;;;;;;74.53;37.13;;;5.40;99.90;;;;;;5048391;28;20436;-45
2023/04/09 01:50:38;;;;;;;57.97;32.28;;;5.40;99.90;;;;;;5048278;28;20434;-45
2023/04/09 01:53:04;;;;;;;74.53;37.20;;;5.40;99.90;;;;;;5048357;28;20028;-45
2023/04/09 01:55:30;;;;;;;62.38;30.83;;;5.40;99.90;;;;;;5048767;28;20126;-46
2023/04/09 01:57:55;;;;;;;49.20;28.40;;;5.40;99.90;;;;;;5047136;28;20024;-46
2023/04/09 02:00:22;;;;;;;46.38;28.52;;;5.30;99.90;;;;;;5048895;28;20026;-50
2023/04/09 02:03:05;;;;;;;61.10;32.15;;;5.40;99.90;;;;;;5047264;28;20021;-46
2023/04/09 02:05:36;;;;;;;61.17;31.23;;;5.40;99.90;;;;;;5048912;28;20052;-45
2023/04/09 02:08:05;;;;;;;62.70;30.63;;;5.30;99.90;;;;;;5046665;28;20028;-46
2023/04/09 02:10:34;;;;;;;65.65;34.15;;;5.30;99.90;;;;;;5048037;28;20217;-46
2023/04/09 02:13:04;;;;;;;108.90;32.10;;;5.40;99.90;;;;;;5047960;28;20017;-49
2023/04/09 02:15:33;;;;;;;52.20;26.53;;;5.30;99.90;;;;;;5048274;28;20363;-47
2023/04/09 02:17:58;;;;;;;57.53;30.95;;;5.20;99.90;;;;;;5046752;28;20255;-47
2023/04/09 02:20:24;;;;;;;56.55;30.35;;;5.30;99.90;;;;;;5047132;28;20036;-47
2023/04/09 02:22:49;;;;;;;46.55;27.38;;;5.30;99.90;;;;;;5048226;28;20032;-47
2023/04/09 02:25:15;;;;;;;39.50;24.83;;;5.30;99.90;;;;;;5046716;28;20032;-47
2023/04/09 02:27:47;;;;;;;61.38;31.95;;;5.30;99.90;;;;;;5047488;28;20060;-47
2023/04/09 02:30:12;;;;;;;74.65;37.88;;;5.30;99.90;;;;;;5047687;28;20451;-46
2023/04/09 02:32:37;;;;;;;81.78;40.83;;;5.20;99.90;;;;;;5046399;28;20044;-47
2023/04/09 02:35:03;;;;;;;90.43;43.65;;;5.20;99.90;;;;;;5048013;28;20028;-47
2023/04/09 02:37:29;;;;;;;81.38;39.67;;;5.30;99.90;;;;;;5047665;28;20045;-46
2023/04/09 02:39:55;;;;;;;71.97;36.85;;;5.30;99.90;;;;;;5047293;28;20090;-46
2023/04/09 02:42:20;;;;;;;85.60;42.97;;;5.30;99.90;;;;;;5043453;28;20301;-45
2023/04/09 02:44:46;;;;;;;83.72;42.17;;;5.30;99.90;;;;;;5041814;28;20039;-46
2023/04/09 02:47:11;;;;;;;82.97;41.22;;;5.30;99.90;;;;;;5039414;28;20033;-46
2023/04/09 02:49:37;;;;;;;79.38;38.63;;;5.20;99.90;;;;;;5041570;28;20025;-48
2023/04/09 02:52:02;;;;;;;75.97;38.15;;;5.20;99.90;;;;;;5045041;28;20371;-46
2023/04/09 02:54:28;;;;;;;88.45;42.05;;;5.20;99.90;;;;;;5047879;28;20017;-46
2023/04/09 02:56:53;;;;;;;81.78;40.38;;;5.20;99.90;;;;;;5047258;28;20394;-48
2023/04/09 02:59:19;;;;;;;75.63;38.15;;;5.20;99.90;;;;;;5047307;28;20059;-47
2023/04/09 03:01:44;;;;;;;88.90;41.67;;;5.20;99.90;;;;;;5046213;28;20490;-45
2023/04/09 03:04:10;;;;;;;78.18;38.90;;;5.30;99.90;;;;;;5048154;28;20441;-46
2023/04/09 03:06:35;;;;;;;90.20;43.05;;;5.20;99.90;;;;;;5047751;28;21495;-46
2023/04/09 03:09:01;;;;;;;75.72;39.00;;;5.30;99.90;;;;;;5042858;28;20484;-46
2023/04/09 03:11:26;;;;;;;78.80;40.80;;;5.30;99.90;;;;;;5041620;28;20390;-46
2023/04/09 03:13:52;;;;;;;80.18;41.42;;;5.30;99.90;;;;;;5051211;28;20398;-45
2023/04/09 03:16:18;;;;;;;76.15;38.35;;;5.30;99.90;;;;;;5051004;28;20028;-46
2023/04/09 03:18:44;;;;;;;81.20;39.35;;;5.30;99.90;;;;;;5051102;28;20013;-46
2023/04/09 03:21:09;;;;;;;70.53;37.08;;;5.30;99.90;;;;;;5049861;28;20040;-46
2023/04/09 03:23:35;;;;;;;83.93;40.30;;;5.30;99.90;;;;;;5049855;28;20032;-45
2023/04/09 03:26:02;;;;;;;90.68;42.22;;;5.30;99.90;;;;;;5051393;28;20033;-45
2023/04/09 03:28:28;;;;;;;79.20;39.17;;;5.30;99.90;;;;;;5050778;28;20047;-47
2023/04/09 03:30:54;;;;;;;77.68;37.70;;;5.30;99.90;;;;;;5051060;28;20462;-46
2023/04/09 03:33:19;;;;;;;86.75;43.40;;;5.40;99.90;;;;;;5051365;28;20023;-46
2023/04/09 03:35:45;;;;;;;81.80;38.72;;;5.40;99.90;;;;;;5050933;28;20023;-45
2023/04/09 03:38:10;;;;;;;85.07;41.05;;;5.40;99.90;;;;;;5050774;28;20047;-46
2023/04/09 03:40:36;;;;;;;72.53;37.63;;;5.40;99.90;;;;;;5050515;28;20504;-47
2023/04/09 03:43:03;;;;;;;80.55;38.15;;;5.40;99.90;;;;;;5050865;28;20035;-47
2023/04/09 03:45:28;;;;;;;80.80;38.67;;;5.40;99.90;;;;;;5050817;28;20540;-47
2023/04/09 03:47:54;;;;;;;81.55;40.38;;;5.40;99.90;;;;;;5050775;28;20041;-47
2023/04/09 03:50:19;;;;;;;76.88;37.28;;;5.40;99.90;;;;;;5050298;28;20482;-45
2023/04/09 03:52:45;;;;;;;78.00;38.20;;;5.40;99.90;;;;;;5059130;28;20021;-46
2023/04/09 03:55:10;;;;;;;77.95;37.13;;;5.40;99.90;;;;;;5049735;28;20110;-46
2023/04/09 03:57:36;;;;;;;62.10;34.38;;;5.40;99.90;;;;;;5050414;28;20402;-46
2023/04/09 04:00:02;;;;;;;67.45;35.50;;;5.40;99.90;;;;;;5050242;28;20571;-45
2023/04/09 04:02:32;;;;;;;60.58;33.13;;;5.50;99.90;;;;;;5050385;28;20032;-47
2023/04/09 04:04:58;;;;;;;60.05;32.25;;;5.50;99.90;;;;;;5048915;28;20024;-46
2023/04/09 04:07:23;;;;;;;63.55;33.70;;;5.50;99.90;;;;;;5050333;28;20025;-47
2023/04/09 04:09:49;;;;;;;55.22;30.90;;;5.60;99.90;;;;;;5049934;28;20388;-49
2023/04/09 04:12:14;;;;;;;51.03;29.10;;;5.50;99.90;;;;;;5050275;28;20093;-47
2023/04/09 04:14:40;;;;;;;55.60;29.60;;;5.60;99.90;;;;;;5043857;28;20029;-47
2023/04/09 04:17:05;;;;;;;52.70;28.38;;;5.60;99.90;;;;;;5041909;28;20021;-48
2023/04/09 04:19:31;;;;;;;52.70;30.00;;;5.60;99.90;;;;;;5073192;28;20024;-46
2023/04/09 04:21:56;;;;;;;47.35;28.45;;;5.70;99.90;;;;;;5043033;28;20178;-46
2023/04/09 04:24:22;;;;;;;54.42;28.35;;;5.70;99.90;;;;;;5042450;28;20053;-46
2023/04/09 04:26:47;;;;;;;50.25;28.58;;;5.70;99.90;;;;;;5042230;28;20124;-47
2023/04/09 04:29:13;;;;;;;53.70;28.73;;;5.70;99.90;;;;;;5047538;28;20036;-46
2023/04/09 04:31:38;;;;;;;50.05;28.75;;;5.70;99.90;;;;;;5048295;28;20009;-45
2023/04/09 04:34:04;;;;;;;55.90;31.80;;;5.80;99.90;;;;;;5049927;28;20027;-46
2023/04/09 04:36:29;;;;;;;53.25;30.10;;;5.80;99.90;;;;;;5049853;28;20029;-46
2023/04/09 04:38:55;;;;;;;51.88;27.67;;;5.80;99.90;;;;;;5065146;28;20016;-46
2023/04/09 04:41:20;;;;;;;50.58;27.67;;;5.80;99.90;;;;;;5049792;28;20091;-47
2023/04/09 04:43:47;;;;;;;47.13;26.50;;;5.80;99.90;;;;;;5050112;28;20451;-47
2023/04/09 04:46:12;;;;;;;56.40;30.45;;;5.80;99.90;;;;;;5049931;28;20024;-48
2023/04/09 04:48:38;;;;;;;57.28;30.95;;;5.80;99.90;;;;;;5052157;28;20395;-47
2023/04/09 04:51:03;;;;;;;51.88;27.42;;;5.90;99.90;;;;;;5055181;28;20142;-46
2023/04/09 04:53:29;;;;;;;54.15;30.83;;;5.80;99.90;;;;;;5048143;28;20394;-46
2023/04/09 04:55:54;;;;;;;58.92;30.27;;;5.90;99.90;;;;;;5049179;28;20434;-46
2023/04/09 04:58:20;;;;;;;51.85;30.00;;;5.90;99.90;;;;;;5049049;28;20067;-46
2023/04/09 05:00:46;;;;;;;53.28;28.27;;;5.90;99.90;;;;;;5049553;28;20025;-46
2023/04/09 05:03:11;;;;;;;47.45;27.25;;;6.00;99.90;;;;;;5048285;28;20040;-46
2023/04/09 05:05:37;;;;;;;54.92;29.40;;;6.00;99.90;;;;;;5049265;28;20088;-46
2023/04/09 05:08:03;;;;;;;51.72;27.17;;;6.00;99.90;;;;;;5048848;28;20021;-46
2023/04/09 05:10:28;;;;;;;48.08;26.73;;;6.00;99.90;;;;;;5049195;28;20408;-45
2023/04/09 05:12:54;;;;;;;54.80;28.15;;;6.10;99.90;;;;;;5049367;28;20032;-46
2023/04/09 05:15:20;;;;;;;56.28;29.15;;;6.10;99.90;;;;;;5049003;28;20029;-45
2023/04/09 05:17:45;;;;;;;55.97;28.63;;;6.10;99.90;;;;;;5040754;28;20024;-46
2023/04/09 05:20:11;;;;;;;50.58;28.15;;;6.10;99.90;;;;;;5039624;28;20029;-45
2023/04/09 05:22:36;;;;;;;52.55;26.40;;;6.10;99.90;;;;;;5048665;28;20426;-46
2023/04/09 05:25:03;;;;;;;49.30;26.20;;;6.10;99.90;;;;;;5049412;28;20048;-46
2023/04/09 05:27:28;;;;;;;58.15;28.60;;;6.20;99.90;;;;;;5049385;28;20056;-45
2023/04/09 05:29:54;;;;;;;58.13;29.73;;;6.20;99.90;;;;;;5048923;28;20052;-46
2023/04/09 05:32:20;;;;;;;50.10;26.65;;;6.20;99.90;;;;;;5047652;28;20028;-46
2023/04/09 05:34:46;;;;;;;58.08;28.80;;;6.20;99.90;;;;;;5047185;28;20535;-46
2023/04/09 05:37:11;;;;;;;51.90;28.10;;;6.20;99.90;;;;;;5046303;28;20032;-47
2023/04/09 05:39:37;;;;;;;53.13;28.08;;;6.30;99.90;;;;;;5048721;28;20044;-46
2023/04/09 05:42:03;;;;;;;57.13;29.45;;;6.30;99.90;;;;;;5049297;28;20021;-46
2023/04/09 05:44:28;;;;;;;63.78;28.48;;;6.30;99.90;;;;;;5047309;28;20056;-46
2023/04/09 05:46:54;;;;;;;54.90;27.63;;;6.30;99.90;;;;;;5047151;28;20068;-48
2023/04/09 05:49:19;;;;;;;55.15;28.33;;;6.40;99.90;;;;;;5055629;28;20056;-46
2023/04/09 05:51:45;;;;;;;56.33;29.85;;;6.40;99.90;;;;;;5048236;28;20108;-46
2023/04/09 05:54:10;;;;;;;58.00;28.02;;;6.40;99.90;;;;;;5048376;28;20314;-47
2023/04/09 05:56:36;;;;;;;54.92;30.25;;;6.40;99.90;;;;;;5048217;28;20235;-47
2023/04/09 05:59:02;;;;;;;50.90;27.10;;;6.50;99.90;;;;;;5048407;28;20375;-47
2023/04/09 06:01:28;;;;;;;54.83;29.00;;;6.50;99.90;;;;;;5048137;28;20241;-46
2023/04/09 06:03:54;;;;;;;59.83;28.38;;;6.60;99.90;;;;;;5048907;28;20223;-46
2023/04/09 06:06:19;;;;;;;59.35;29.80;;;6.70;99.90;;;;;;5046674;28;20122;-47
2023/04/09 06:08:45;;;;;;;56.28;28.95;;;6.70;99.90;;;;;;5056468;28;20025;-46
2023/04/09 06:11:11;;;;;;;61.28;30.25;;;6.70;99.90;;;;;;5048355;28;20070;-48
2023/04/09 06:13:37;;;;;;;57.22;29.10;;;6.70;99.90;;;;;;5030281;28;20021;-48
2023/04/09 06:16:06;;;;;;;53.60;28.13;;;6.70;99.90;;;;;;5048159;28;20512;-47
2023/04/09 06:18:32;;;;;;;55.20;29.83;;;6.70;99.90;;;;;;5047717;28;20028;-48
2023/04/09 06:21:05;;;;;;;55.85;29.38;;;6.70;99.90;;;;;;5048132;28;20029;-49
2023/04/09 06:23:32;;;;;;;57.85;29.10;;;6.80;99.90;;;;;;5048416;28;20612;-47
2023/04/09 06:25:58;;;;;;;64.53;31.75;;;6.70;99.90;;;;;;5048290;28;20223;-48
2023/04/09 06:28:23;;;;;;;61.25;30.55;;;6.80;99.90;;;;;;5047770;28;20152;-48
2023/04/09 06:30:49;;;;;;;64.28;31.05;;;6.80;99.90;;;;;;5048552;28;20029;-48
2023/04/09 06:33:15;;;;;;;54.65;28.65;;;6.80;99.90;;;;;;5047939;28;20620;-48
2023/04/09 06:35:41;;;;;;;64.30;30.58;;;6.80;99.90;;;;;;5046902;28;20062;-47
2023/04/09 06:38:08;;;;;;;55.20;29.75;;;6.80;99.90;;;;;;5047661;28;20048;-49
2023/04/09 06:40:37;;;;;;;57.63;29.65;;;6.80;99.90;;;;;;5046949;28;20017;-49
2023/04/09 06:43:04;;;;;;;56.55;31.02;;;6.80;99.90;;;;;;5049099;28;20454;-50
2023/04/09 06:45:30;;;;;;;56.20;29.70;;;6.90;99.90;;;;;;5051468;28;20025;-49
2023/04/09 06:47:56;;;;;;;59.10;31.30;;;6.90;99.90;;;;;;5041559;28;21280;-47
2023/04/09 06:50:21;;;;;;;67.55;31.40;;;7.00;99.90;;;;;;5050893;28;20044;-50
2023/04/09 06:52:47;;;;;;;60.30;31.65;;;6.90;99.90;;;;;;5051824;28;20025;-49
2023/04/09 06:55:13;;;;;;;53.83;29.77;;;6.90;99.90;;;;;;5051530;28;20323;-48
2023/04/09 06:57:38;;;;;;;62.40;32.50;;;6.90;99.90;;;;;;5049593;28;20052;-47
2023/04/09 07:00:04;;;;;;;61.47;31.15;;;6.90;99.90;;;;;;5051546;28;20096;-47
2023/04/09 07:02:30;;;;;;;53.88;28.15;;;7.00;99.90;;;;;;5050912;28;20025;-48
2023/04/09 07:04:56;;;;;;;53.83;29.27;;;7.10;99.90;;;;;;5051922;28;20032;-47
2023/04/09 07:07:21;;;;;;;60.20;31.58;;;7.00;99.90;;;;;;5048179;28;20060;-47
2023/04/09 07:09:51;;;;;;;49.80;28.67;;;7.10;99.90;;;;;;5046621;28;20065;-49
2023/04/09 07:12:31;;;;;;;52.83;28.67;;;7.00;99.90;;;;;;5046616;28;20025;-47
2023/04/09 07:15:01;;;;;;;56.45;29.02;;;7.00;99.90;;;;;;5045198;28;20013;-48
2023/04/09 07:17:27;;;;;;;65.53;31.67;;;7.00;99.90;;;;;;5059429;28;20548;-47
2023/04/09 07:19:53;;;;;;;60.80;33.35;;;7.10;99.90;;;;;;5043548;28;20055;-49
2023/04/09 07:22:21;;;;;;;64.45;33.10;;;7.10;99.90;;;;;;5044995;28;20056;-50
2023/04/09 07:24:52;;;;;;;60.00;31.00;;;7.20;99.90;;;;;;5044047;28;20426;-48
2023/04/09 07:27:26;;;;;;;62.33;32.25;;;7.10;99.90;;;;;;5055645;28;20030;-47
2023/04/09 07:29:56;;;;;;;62.53;31.58;;;7.10;99.90;;;;;;5049335;28;20593;-48
2023/04/09 07:32:23;;;;;;;66.37;30.50;;;7.00;99.90;;;;;;5047043;28;20640;-48
2023/04/09 07:34:51;;;;;;;67.05;33.90;;;7.00;99.90;;;;;;5045428;28;20021;-47
2023/04/09 07:37:17;;;;;;;65.50;34.97;;;7.00;99.90;;;;;;5041102;28;20024;-47
2023/04/09 07:39:43;;;;;;;66.95;33.75;;;7.00;99.90;;;;;;5043580;28;20021;-47
2023/04/09 07:42:08;;;;;;;61.80;32.90;;;7.00;99.90;;;;;;5047889;28;20025;-46
2023/04/09 07:44:35;;;;;;;64.05;33.10;;;7.10;99.90;;;;;;5051546;28;20036;-51
2023/04/09 07:47:05;;;;;;;61.90;32.55;;;7.20;99.90;;;;;;5049497;28;20600;-48
2023/04/09 07:49:32;;;;;;;61.35;31.02;;;7.10;99.90;;;;;;5049351;28;20043;-47
2023/04/09 07:51:59;;;;;;;66.75;33.45;;;7.10;99.90;;;;;;5050775;28;20021;-47
2023/04/09 07:54:24;;;;;;;60.05;32.83;;;7.10;99.90;;;;;;5048325;28;20025;-47
2023/04/09 07:56:50;;;;;;;64.32;30.98;;;7.10;99.90;;;;;;5050448;28;20029;-50
2023/04/09 07:59:16;;;;;;;61.78;32.88;;;7.10;99.90;;;;;;5050288;28;20500;-47
2023/04/09 08:01:42;;;;;;;57.42;31.15;;;7.10;99.90;;;;;;5050503;28;20441;-49
2023/04/09 08:04:08;;;;;;;60.47;31.80;;;7.20;99.90;;;;;;5050718;28;20033;-50
2023/04/09 08:06:34;;;;;;;61.05;32.28;;;7.20;99.90;;;;;;5050373;28;20118;-49
2023/04/09 08:09:00;;;;;;;57.45;30.95;;;7.20;99.90;;;;;;5050232;28;20025;-47
2023/04/09 08:11:26;;;;;;;56.28;30.65;;;7.20;99.90;;;;;;5050250;28;20033;-47
2023/04/09 08:13:51;;;;;;;62.88;32.75;;;7.20;99.90;;;;;;5045336;28;20037;-48
2023/04/09 08:16:17;;;;;;;57.55;31.83;;;7.20;99.90;;;;;;5049029;28;20392;-48
2023/04/09 08:18:43;;;;;;;59.10;32.08;;;7.30;99.90;;;;;;5050234;28;20104;-47
2023/04/09 08:21:08;;;;;;;56.17;29.40;;;7.30;99.90;;;;;;5049214;28;20029;-47
2023/04/09 08:23:34;;;;;;;56.25;31.45;;;7.30;99.90;;;;;;5050619;28;20029;-50
2023/04/09 08:26:00;;;;;;;60.20;31.23;;;7.50;99.90;;;;;;5050221;28;20024;-49
2023/04/09 08:28:25;;;;;;;63.78;31.80;;;7.30;99.90;;;;;;5042090;28;20029;-47
2023/04/09 08:30:51;;;;;;;60.85;31.05;;;7.10;99.90;;;;;;5045689;28;20063;-47
2023/04/09 08:33:17;;;;;;;60.53;31.25;;;7.30;99.90;;;;;;5050011;28;20021;-46
2023/04/09 08:35:43;;;;;;;59.80;31.17;;;7.40;99.90;;;;;;5050317;28;20565;-48
2023/04/09 08:38:08;;;;;;;59.50;32.38;;;7.50;99.90;;;;;;5048436;28;20029;-46
2023/04/09 08:40:37;;;;;;;57.95;30.77;;;7.50;99.90;;;;;;5048718;28;20430;-47
2023/04/09 08:43:07;;;;;;;56.75;30.67;;;7.50;99.90;;;;;;5049759;28;20029;-46
2023/04/09 08:45:34;;;;;;;56.92;29.88;;;7.60;99.90;;;;;;5049894;28;20032;-46
2023/04/09 08:48:02;;;;;;;53.72;29.10;;;7.50;99.90;;;;;;5048076;28;20033;-47
2023/04/09 08:50:30;;;;;;;59.45;31.08;;;7.60;99.90;;;;;;5051188;28;20013;-47
2023/04/09 08:52:57;;;;;;;54.17;28.98;;;7.80;99.90;;;;;;5056281;28;20044;-47
2023/04/09 08:55:22;;;;;;;60.00;31.73;;;7.90;99.90;;;;;;5049605;28;20021;-47
2023/04/09 08:57:48;;;;;;;56.58;30.55;;;7.90;99.90;;;;;;5049289;28;20017;-48
2023/04/09 09:00:13;;;;;;;58.42;29.73;;;8.00;99.90;;;;;;5049619;28;20033;-47
2023/04/09 09:03:05;;;;;;;48.90;28.90;;;8.20;99.90;;;;;;5048472;28;20049;-48
2023/04/09 09:05:44;;;;;;;46.78;27.95;;;8.20;99.90;;;;;;5049296;28;20071;-46
2023/04/09 09:08:30;;;;;;;55.65;28.67;;;8.20;99.90;;;;;;5049037;28;20228;-46
2023/04/09 09:10:56;;;;;;;49.17;27.73;;;8.20;99.90;;;;;;5049309;28;20102;-45
2023/04/09 09:13:23;;;;;;;52.83;29.77;;;8.40;99.90;;;;;;5049414;28;20037;-47
2023/04/09 09:15:56;;;;;;;52.13;29.52;;;8.50;99.90;;;;;;5049612;28;20033;-46
2023/04/09 09:18:42;;;;;;;53.83;29.92;;;8.50;99.90;;;;;;5049233;28;20448;-46
2023/04/09 09:21:13;;;;;;;51.50;28.70;;;8.50;99.90;;;;;;5049561;28;20074;-49
2023/04/09 09:23:39;;;;;;;55.13;30.40;;;8.50;99.90;;;;;;5049293;28;20037;-47
2023/04/09 09:26:19;;;;;;;50.47;29.08;;;8.30;99.90;;;;;;5048044;28;20029;-49
2023/04/09 09:28:47;;;;;;;51.42;30.13;;;8.50;99.90;;;;;;5040730;28;20017;-47
2023/04/09 09:31:13;;;;;;;52.25;29.17;;;8.60;99.90;;;;;;5049315;28;20498;-48
2023/04/09 09:33:39;;;;;;;50.70;28.52;;;8.60;99.90;;;;;;5049066;28;20017;-48
2023/04/09 09:36:05;;;;;;;52.45;29.73;;;8.70;99.90;;;;;;5048935;28;20032;-46
2023/04/09 09:38:31;;;;;;;51.83;27.65;;;8.70;99.90;;;;;;5047081;28;20025;-47
2023/04/09 09:40:57;;;;;;;46.42;28.63;;;8.90;99.90;;;;;;5048125;28;20063;-49
2023/04/09 09:43:23;;;;;;;46.28;28.25;;;9.00;99.90;;;;;;5048681;28;20440;-46
2023/04/09 09:45:49;;;;;;;46.67;28.98;;;9.00;99.90;;;;;;5048850;28;20021;-47
2023/04/09 09:48:15;;;;;;;53.65;29.92;;;9.00;99.90;;;;;;5048319;28;20029;-48
2023/04/09 09:50:41;;;;;;;53.20;30.13;;;9.20;99.90;;;;;;5047343;28;20248;-46
2023/04/09 09:53:09;;;;;;;50.03;29.25;;;9.30;99.90;;;;;;5048858;28;20025;-47
2023/04/09 09:55:40;;;;;;;57.65;31.63;;;9.30;99.90;;;;;;5048497;28;20475;-49
2023/04/09 09:58:36;;;;;;;55.88;30.33;;;9.30;99.90;;;;;;5047168;28;20044;-49
2023/04/09 10:01:09;;;;;;;52.00;30.13;;;9.20;99.90;;;;;;5048728;28;20123;-46
2023/04/09 10:03:38;;;;;;;51.92;30.98;;;8.70;99.90;;;;;;5048599;28;20028;-47
2023/04/09 10:06:04;;;;;;;53.67;29.98;;;8.80;99.90;;;;;;5048868;28;20597;-47
2023/04/09 10:08:32;;;;;;;50.72;29.23;;;9.00;99.90;;;;;;5048622;28;20072;-47
2023/04/09 10:11:00;;;;;;;51.38;30.13;;;9.00;99.90;;;;;;5046850;28;20032;-46
2023/04/09 10:13:39;;;;;;;52.50;30.02;;;9.30;99.90;;;;;;5048563;28;20028;-46
2023/04/09 10:16:06;;;;;;;52.63;28.70;;;9.80;99.90;;;;;;5048468;28;20025;-46
2023/04/09 10:18:32;;;;;;;47.35;28.70;;;10.30;99.90;;;;;;5052539;28;20033;-47
2023/04/09 10:21:09;;;;;;;43.30;27.00;;;10.80;99.90;;;;;;5055502;28;20446;-46
2023/04/09 10:23:39;;;;;;;44.53;28.02;;;11.30;99.90;;;;;;5054994;28;20033;-47
2023/04/09 10:26:05;;;;;;;44.85;27.08;;;12.30;99.90;;;;;;5061246;28;20489;-47
2023/04/09 10:28:31;;;;;;;40.28;26.42;;;12.20;99.90;;;;;;5056273;28;20120;-46
2023/04/09 10:30:57;;;;;;;43.55;30.13;;;12.30;99.90;;;;;;5053943;28;20052;-46
2023/04/09 10:33:28;;;;;;;45.38;28.00;;;12.20;99.90;;;;;;5055044;28;20213;-46
2023/04/09 10:35:58;;;;;;;43.28;27.33;;;12.30;99.90;;;;;;5055347;28;20096;-46
2023/04/09 10:38:39;;;;;;;44.97;27.60;;;12.60;99.90;;;;;;5062996;28;20523;-47
2023/04/09 10:41:24;;;;;;;43.33;27.63;;;13.80;99.90;;;;;;5054574;28;20043;-47
2023/04/09 10:43:49;;;;;;;40.35;27.05;;;13.60;99.90;;;;;;5046372;28;20029;-47
2023/04/09 10:46:44;;;;;;;37.40;27.02;;;13.40;99.90;;;;;;5055182;28;20036;-47
2023/04/09 10:49:18;;;;;;;40.55;27.05;;;13.50;99.90;;;;;;5046065;28;20048;-48
2023/04/09 10:52:03;;;;;;;43.60;28.10;;;14.10;99.90;;;;;;5070217;28;20017;-45
2023/04/09 10:54:32;;;;;;;39.25;25.77;;;14.80;99.90;;;;;;5054982;28;20402;-46
2023/04/09 10:57:25;;;;;;;35.30;25.17;;;16.30;98.70;;;;;;5054712;28;20390;-46
2023/04/09 10:59:53;;;;;;;32.45;24.10;;;18.20;95.00;;;;;;5053018;28;20379;-46
2023/04/09 11:02:27;;;;;;;34.45;25.02;;;19.80;90.90;;;;;;5054879;28;20025;-48
2023/04/09 11:05:18;;;;;;;32.38;24.33;;;20.40;82.30;;;;;;5054852;28;20040;-48
2023/04/09 11:07:50;;;;;;;28.20;22.13;;;20.60;81.20;;;;;;5054737;28;20045;-46
2023/04/09 11:10:16;;;;;;;31.77;25.80;;;20.90;78.00;;;;;;5054326;28;20024;-47
2023/04/09 11:12:41;;;;;;;28.33;23.27;;;21.00;74.50;;;;;;5054649;28;20023;-46
2023/04/09 11:15:15;;;;;;;28.48;21.58;;;21.30;77.80;;;;;;5054781;28;20317;-46
2023/04/09 11:17:42;;;;;;;27.05;22.52;;;21.90;73.40;;;;;;5053304;28;20044;-46
2023/04/09 11:20:09;;;;;;;28.55;21.73;;;23.50;68.30;;;;;;5054541;28;20029;-49
2023/04/09 11:22:35;;;;;;;24.70;20.23;;;24.40;66.40;;;;;;5053388;28;20036;-46
2023/04/09 11:25:00;;;;;;;24.40;21.75;;;24.60;64.30;;;;;;5054008;28;20431;-46
2023/04/09 11:27:26;;;;;;;27.40;23.20;;;23.60;64.00;;;;;;5054048;28;20609;-48
2023/04/09 11:29:55;;;;;;;25.25;21.33;;;23.20;65.00;;;;;;5057038;28;20064;-46
2023/04/09 11:32:20;;;;;;;24.02;21.00;;;23.30;63.50;;;;;;5054358;28;20130;-48
2023/04/09 11:34:46;;;;;;;28.42;23.95;;;23.70;62.20;;;;;;5049769;28;20028;-46
2023/04/09 11:37:15;;;;;;;22.80;20.35;;;23.30;60.90;;;;;;5051066;28;20037;-46
2023/04/09 11:39:45;;;;;;;25.65;21.92;;;22.70;65.40;;;;;;5049230;28;20213;-48
2023/04/09 11:42:14;;;;;;;22.35;19.80;;;22.40;63.90;;;;;;5050547;28;20029;-47
2023/04/09 11:44:40;;;;;;;25.00;20.65;;;22.90;65.30;;;;;;5050336;28;20263;-48
2023/04/09 11:47:08;;;;;;;24.60;21.40;;;23.30;61.50;;;;;;5043737;28;20036;-51
2023/04/09 11:49:33;;;;;;;26.35;22.73;;;22.50;63.70;;;;;;5059003;28;20105;-47
2023/04/09 11:52:00;;;;;;;28.77;23.80;;;20.90;64.10;;;;;;5045134;28;20163;-47
2023/04/09 11:54:32;;;;;;;27.75;22.85;;;20.90;66.20;;;;;;5050434;28;20025;-48
2023/04/09 11:56:58;;;;;;;29.70;24.67;;;21.30;66.50;;;;;;5055436;28;20016;-48
2023/04/09 11:59:24;;;;;;;25.30;20.80;;;21.20;67.30;;;;;;5052523;28;20028;-46
2023/04/09 12:01:50;;;;;;;26.63;22.95;;;20.50;68.60;;;;;;5050326;28;20029;-46
2023/04/09 12:04:22;;;;;;;31.40;26.27;;;20.50;66.60;;;;;;5050130;28;20094;-46
2023/04/09 12:06:47;;;;;;;32.72;24.83;;;19.40;65.90;;;;;;5042327;28;20021;-46
2023/04/09 12:09:13;;;;;;;29.40;24.40;;;18.10;70.10;;;;;;5049882;28;20032;-47
2023/04/09 12:11:43;;;;;;;35.10;26.65;;;17.90;71.30;;;;;;5050167;28;20052;-46
2023/04/09 12:14:15;;;;;;;31.27;24.17;;;17.00;75.70;;;;;;5050621;28;20390;-46
2023/04/09 12:16:44;;;;;;;34.22;26.17;;;16.30;77.70;;;;;;5050403;28;20052;-46
2023/04/09 12:19:11;;;;;;;32.53;24.17;;;16.60;79.00;;;;;;5050508;28;20018;-46
2023/04/09 12:21:55;;;;;;;34.47;24.77;;;17.10;81.00;;;;;;5050488;28;20097;-46
2023/04/09 12:24:22;;;;;;;31.75;23.08;;;16.90;80.20;;;;;;5050745;28;20025;-46
2023/04/09 12:26:48;;;;;;;35.80;25.52;;;16.80;79.20;;;;;;5050003;28;20047;-46
2023/04/09 12:29:15;;;;;;;34.65;25.58;;;16.80;79.40;;;;;;5058836;28;20025;-46
2023/04/09 12:31:42;;;;;;;36.88;26.80;;;16.90;79.00;;;;;;5057211;28;20116;-46
2023/04/09 12:34:07;;;;;;;37.85;26.77;;;17.40;78.00;;;;;;5050143;28;20032;-48
2023/04/09 12:36:33;;;;;;;36.03;26.17;;;17.60;76.60;;;;;;5048444;28;20087;-46
2023/04/09 12:38:59;;;;;;;39.28;26.45;;;17.40;76.90;;;;;;5055740;28;20104;-46